sensor_id;sensor_type;location;lat;lon;timestamp;P1;durP1;ratioP1;P2;durP2;ratioP2
73699;SDS011;62005;50.082;8.988;2023-04-16T00:34:30;4.88;;;1.85;;
73699;SDS011;62005;50.082;8.988;2023-04-16T01:39:51;3.70;;;1.98;;
73699;SDS011;62005;50.082;8.988;2023-04-16T01:42:16;5.15;;;2.25;;
73699;SDS011;62005;50.082;8.988;2023-04-16T01:44:41;4.40;;;2.37;;
73699;SDS011;62005;50.082;8.988;2023-04-16T01:47:07;6.60;;;2.50;;
73699;SDS011;62005;50.082;8.988;2023-04-16T01:57:10;6.38;;;2.35;;
73699;SDS011;62005;50.082;8.988;2023-04-16T01:59:35;5.70;;;3.50;;
73699;SDS011;62005;50.082;8.988;2023-04-16T02:02:06;4.73;;;2.50;;
73699;SDS011;62005;50.082;8.988;2023-04-16T02:04:35;5.15;;;2.45;;
73699;SDS011;62005;50.082;8.988;2023-04-16T02:07:02;5.35;;;2.38;;
73699;SDS011;62005;50.082;8.988;2023-04-16T02:32:28;6.40;;;2.58;;
73699;SDS011;62005;50.082;8.988;2023-04-16T02:34:54;7.72;;;3.15;;
73699;SDS011;62005;50.082;8.988;2023-04-16T02:37:20;5.78;;;2.97;;
73699;SDS011;62005;50.082;8.988;2023-04-16T04:37:38;6.85;;;3.28;;
73699;SDS011;62005;50.082;8.988;2023-04-16T04:40:12;6.28;;;3.45;;
73699;SDS011;62005;50.082;8.988;2023-04-16T04:42:56;5.90;;;2.97;;
73699;SDS011;62005;50.082;8.988;2023-04-16T04:45:43;6.60;;;3.30;;
73699;SDS011;62005;50.082;8.988;2023-04-16T04:48:18;6.25;;;2.97;;
73699;SDS011;62005;50.082;8.988;2023-04-16T04:51:01;5.55;;;2.63;;
73699;SDS011;62005;50.082;8.988;2023-04-16T04:53:50;5.82;;;2.72;;
73699;SDS011;62005;50.082;8.988;2023-04-16T04:56:33;6.22;;;3.15;;
73699;SDS011;62005;50.082;8.988;2023-04-16T04:59:08;5.40;;;2.70;;
73699;SDS011;62005;50.082;8.988;2023-04-16T05:01:48;7.07;;;3.38;;
73699;SDS011;62005;50.082;8.988;2023-04-16T05:04:22;5.47;;;3.40;;
73699;SDS011;62005;50.082;8.988;2023-04-16T05:06:54;5.55;;;3.03;;
73699;SDS011;62005;50.082;8.988;2023-04-16T05:09:38;7.75;;;3.78;;
73699;SDS011;62005;50.082;8.988;2023-04-16T05:12:13;5.63;;;2.97;;
73699;SDS011;62005;50.082;8.988;2023-04-16T05:15:00;6.85;;;3.55;;
73699;SDS011;62005;50.082;8.988;2023-04-16T05:17:26;6.65;;;3.42;;
73699;SDS011;62005;50.082;8.988;2023-04-16T05:20:06;8.73;;;3.28;;
73699;SDS011;62005;50.082;8.988;2023-04-16T05:23:05;7.50;;;3.70;;
73699;SDS011;62005;50.082;8.988;2023-04-16T05:25:35;6.90;;;3.63;;
73699;SDS011;62005;50.082;8.988;2023-04-16T05:28:15;6.68;;;3.58;;
73699;SDS011;62005;50.082;8.988;2023-04-16T05:33:42;5.90;;;3.05;;
73699;SDS011;62005;50.082;8.988;2023-04-16T05:36:16;7.68;;;3.38;;
73699;SDS011;62005;50.082;8.988;2023-04-16T05:39:16;5.93;;;3.47;;
73699;SDS011;62005;50.082;8.988;2023-04-16T05:41:47;6.20;;;3.22;;
73699;SDS011;62005;50.082;8.988;2023-04-16T05:44:13;7.35;;;3.03;;
73699;SDS011;62005;50.082;8.988;2023-04-16T05:49:33;6.07;;;3.58;;
73699;SDS011;62005;50.082;8.988;2023-04-16T05:52:10;6.70;;;2.78;;
73699;SDS011;62005;50.082;8.988;2023-04-16T05:57:44;7.43;;;3.28;;
73699;SDS011;62005;50.082;8.988;2023-04-16T06:00:09;6.83;;;3.83;;
73699;SDS011;62005;50.082;8.988;2023-04-16T06:02:35;7.35;;;3.72;;
73699;SDS011;62005;50.082;8.988;2023-04-16T06:05:00;6.40;;;3.30;;
73699;SDS011;62005;50.082;8.988;2023-04-16T06:07:25;6.38;;;3.47;;
73699;SDS011;62005;50.082;8.988;2023-04-16T06:09:51;6.37;;;3.40;;
73699;SDS011;62005;50.082;8.988;2023-04-16T06:12:16;5.57;;;3.03;;
73699;SDS011;62005;50.082;8.988;2023-04-16T06:14:41;6.27;;;3.13;;
73699;SDS011;62005;50.082;8.988;2023-04-16T06:17:22;6.30;;;3.45;;
73699;SDS011;62005;50.082;8.988;2023-04-16T06:20:10;7.78;;;2.70;;
73699;SDS011;62005;50.082;8.988;2023-04-16T06:22:38;6.25;;;2.75;;
73699;SDS011;62005;50.082;8.988;2023-04-16T06:25:19;5.30;;;2.95;;
73699;SDS011;62005;50.082;8.988;2023-04-16T06:27:47;7.57;;;3.23;;
73699;SDS011;62005;50.082;8.988;2023-04-16T06:30:13;5.32;;;2.85;;
73699;SDS011;62005;50.082;8.988;2023-04-16T06:32:39;7.07;;;3.30;;
73699;SDS011;62005;50.082;8.988;2023-04-16T06:35:06;7.07;;;3.30;;
73699;SDS011;62005;50.082;8.988;2023-04-16T06:37:40;8.23;;;3.33;;
73699;SDS011;62005;50.082;8.988;2023-04-16T06:40:08;7.47;;;3.30;;
73699;SDS011;62005;50.082;8.988;2023-04-16T06:42:36;6.22;;;3.28;;
73699;SDS011;62005;50.082;8.988;2023-04-16T06:45:01;8.77;;;3.40;;
73699;SDS011;62005;50.082;8.988;2023-04-16T06:47:29;6.50;;;3.25;;
73699;SDS011;62005;50.082;8.988;2023-04-16T06:49:54;8.23;;;3.57;;
73699;SDS011;62005;50.082;8.988;2023-04-16T06:52:20;7.03;;;3.50;;
73699;SDS011;62005;50.082;8.988;2023-04-16T06:54:48;7.20;;;3.65;;
73699;SDS011;62005;50.082;8.988;2023-04-16T06:57:16;7.28;;;3.00;;
73699;SDS011;62005;50.082;8.988;2023-04-16T06:59:41;6.00;;;3.57;;
73699;SDS011;62005;50.082;8.988;2023-04-16T07:02:13;6.75;;;3.25;;
73699;SDS011;62005;50.082;8.988;2023-04-16T07:04:38;7.85;;;3.25;;
73699;SDS011;62005;50.082;8.988;2023-04-16T07:07:04;6.90;;;3.30;;
73699;SDS011;62005;50.082;8.988;2023-04-16T07:09:29;7.53;;;3.05;;
73699;SDS011;62005;50.082;8.988;2023-04-16T07:11:54;10.53;;;3.00;;
73699;SDS011;62005;50.082;8.988;2023-04-16T07:14:20;7.13;;;3.13;;
73699;SDS011;62005;50.082;8.988;2023-04-16T07:16:45;5.18;;;3.13;;
73699;SDS011;62005;50.082;8.988;2023-04-16T07:19:11;8.30;;;4.00;;
73699;SDS011;62005;50.082;8.988;2023-04-16T07:21:36;7.07;;;3.43;;
73699;SDS011;62005;50.082;8.988;2023-04-16T07:24:02;7.10;;;3.83;;
73699;SDS011;62005;50.082;8.988;2023-04-16T07:26:27;5.80;;;2.95;;
73699;SDS011;62005;50.082;8.988;2023-04-16T07:28:52;6.85;;;2.95;;
73699;SDS011;62005;50.082;8.988;2023-04-16T07:31:18;6.57;;;2.97;;
73699;SDS011;62005;50.082;8.988;2023-04-16T07:33:43;6.43;;;3.20;;
73699;SDS011;62005;50.082;8.988;2023-04-16T07:36:08;6.83;;;3.03;;
73699;SDS011;62005;50.082;8.988;2023-04-16T07:38:34;6.35;;;3.38;;
73699;SDS011;62005;50.082;8.988;2023-04-16T07:40:59;6.73;;;3.10;;
73699;SDS011;62005;50.082;8.988;2023-04-16T07:43:25;6.22;;;2.47;;
73699;SDS011;62005;50.082;8.988;2023-04-16T07:45:51;7.33;;;3.53;;
73699;SDS011;62005;50.082;8.988;2023-04-16T07:48:16;7.20;;;3.17;;
73699;SDS011;62005;50.082;8.988;2023-04-16T07:50:41;6.47;;;3.17;;
73699;SDS011;62005;50.082;8.988;2023-04-16T07:53:10;7.93;;;3.67;;
73699;SDS011;62005;50.082;8.988;2023-04-16T07:55:35;8.00;;;3.65;;
73699;SDS011;62005;50.082;8.988;2023-04-16T07:58:01;7.28;;;3.47;;
73699;SDS011;62005;50.082;8.988;2023-04-16T08:00:32;6.47;;;3.00;;
73699;SDS011;62005;50.082;8.988;2023-04-16T08:03:05;7.47;;;3.33;;
73699;SDS011;62005;50.082;8.988;2023-04-16T08:05:30;5.70;;;3.50;;
73699;SDS011;62005;50.082;8.988;2023-04-16T08:08:03;8.48;;;3.92;;
73699;SDS011;62005;50.082;8.988;2023-04-16T08:10:32;8.52;;;3.72;;
73699;SDS011;62005;50.082;8.988;2023-04-16T08:12:59;7.13;;;3.85;;
73699;SDS011;62005;50.082;8.988;2023-04-16T08:15:25;12.50;;;3.47;;
73699;SDS011;62005;50.082;8.988;2023-04-16T08:17:51;9.43;;;4.03;;
73699;SDS011;62005;50.082;8.988;2023-04-16T08:20:19;7.45;;;3.80;;
73699;SDS011;62005;50.082;8.988;2023-04-16T08:22:44;7.70;;;3.25;;
73699;SDS011;62005;50.082;8.988;2023-04-16T08:25:12;7.88;;;3.40;;
73699;SDS011;62005;50.082;8.988;2023-04-16T08:27:38;8.57;;;3.92;;
73699;SDS011;62005;50.082;8.988;2023-04-16T08:30:04;7.05;;;3.70;;
73699;SDS011;62005;50.082;8.988;2023-04-16T08:32:29;8.10;;;3.88;;
73699;SDS011;62005;50.082;8.988;2023-04-16T08:34:55;9.33;;;3.63;;
73699;SDS011;62005;50.082;8.988;2023-04-16T08:37:21;11.70;;;3.78;;
73699;SDS011;62005;50.082;8.988;2023-04-16T08:39:47;9.53;;;4.00;;
73699;SDS011;62005;50.082;8.988;2023-04-16T08:42:17;8.97;;;4.30;;
73699;SDS011;62005;50.082;8.988;2023-04-16T08:44:49;8.65;;;4.10;;
73699;SDS011;62005;50.082;8.988;2023-04-16T08:47:20;8.45;;;3.45;;
73699;SDS011;62005;50.082;8.988;2023-04-16T08:49:49;8.57;;;4.05;;
73699;SDS011;62005;50.082;8.988;2023-04-16T08:52:17;8.85;;;4.22;;
73699;SDS011;62005;50.082;8.988;2023-04-16T08:54:51;7.35;;;3.78;;
73699;SDS011;62005;50.082;8.988;2023-04-16T08:57:43;7.40;;;4.03;;
73699;SDS011;62005;50.082;8.988;2023-04-16T09:00:11;8.68;;;3.63;;
73699;SDS011;62005;50.082;8.988;2023-04-16T09:02:38;8.82;;;3.78;;
73699;SDS011;62005;50.082;8.988;2023-04-16T09:05:06;8.73;;;4.40;;
73699;SDS011;62005;50.082;8.988;2023-04-16T09:07:36;6.43;;;3.33;;
73699;SDS011;62005;50.082;8.988;2023-04-16T09:10:08;7.63;;;3.60;;
73699;SDS011;62005;50.082;8.988;2023-04-16T09:12:41;8.50;;;4.15;;
73699;SDS011;62005;50.082;8.988;2023-04-16T09:15:08;9.90;;;4.15;;
73699;SDS011;62005;50.082;8.988;2023-04-16T09:17:34;7.60;;;3.85;;
73699;SDS011;62005;50.082;8.988;2023-04-16T09:20:04;8.75;;;4.43;;
73699;SDS011;62005;50.082;8.988;2023-04-16T09:25:35;8.57;;;3.70;;
73699;SDS011;62005;50.082;8.988;2023-04-16T09:28:01;9.60;;;4.45;;
73699;SDS011;62005;50.082;8.988;2023-04-16T09:30:26;8.75;;;4.25;;
73699;SDS011;62005;50.082;8.988;2023-04-16T09:33:19;7.40;;;3.72;;
73699;SDS011;62005;50.082;8.988;2023-04-16T09:35:48;8.40;;;4.38;;
73699;SDS011;62005;50.082;8.988;2023-04-16T09:38:22;9.82;;;4.65;;
73699;SDS011;62005;50.082;8.988;2023-04-16T09:41:04;7.75;;;4.13;;
73699;SDS011;62005;50.082;8.988;2023-04-16T09:43:37;10.52;;;4.20;;
73699;SDS011;62005;50.082;8.988;2023-04-16T09:46:41;7.22;;;3.83;;
73699;SDS011;62005;50.082;8.988;2023-04-16T09:52:43;9.48;;;3.95;;
73699;SDS011;62005;50.082;8.988;2023-04-16T09:55:31;9.40;;;4.38;;
73699;SDS011;62005;50.082;8.988;2023-04-16T09:58:08;9.52;;;4.57;;
73699;SDS011;62005;50.082;8.988;2023-04-16T10:20:54;10.80;;;5.30;;
73699;SDS011;62005;50.082;8.988;2023-04-16T10:27:33;9.43;;;4.78;;
73699;SDS011;62005;50.082;8.988;2023-04-16T11:41:26;17.80;;;7.35;;
73699;SDS011;62005;50.082;8.988;2023-04-16T11:47:56;14.75;;;7.05;;
73699;SDS011;62005;50.082;8.988;2023-04-16T11:50:53;14.20;;;7.88;;
73699;SDS011;62005;50.082;8.988;2023-04-16T12:21:37;18.67;;;9.10;;
73699;SDS011;62005;50.082;8.988;2023-04-16T12:24:08;14.68;;;8.02;;
73699;SDS011;62005;50.082;8.988;2023-04-16T12:26:38;16.25;;;8.75;;
73699;SDS011;62005;50.082;8.988;2023-04-16T12:29:29;19.33;;;8.25;;
73699;SDS011;62005;50.082;8.988;2023-04-16T12:31:59;17.83;;;9.07;;
73699;SDS011;62005;50.082;8.988;2023-04-16T12:34:28;16.02;;;9.00;;
73699;SDS011;62005;50.082;8.988;2023-04-16T12:37:09;20.17;;;10.50;;
73699;SDS011;62005;50.082;8.988;2023-04-16T12:39:39;16.40;;;9.05;;
73699;SDS011;62005;50.082;8.988;2023-04-16T12:42:16;19.73;;;9.60;;
73699;SDS011;62005;50.082;8.988;2023-04-16T12:44:42;17.40;;;9.32;;
73699;SDS011;62005;50.082;8.988;2023-04-16T12:47:13;18.40;;;9.10;;
73699;SDS011;62005;50.082;8.988;2023-04-16T12:49:41;17.58;;;8.80;;
73699;SDS011;62005;50.082;8.988;2023-04-16T12:52:11;15.95;;;9.23;;
73699;SDS011;62005;50.082;8.988;2023-04-16T12:54:39;17.67;;;9.52;;
73699;SDS011;62005;50.082;8.988;2023-04-16T12:57:05;20.35;;;9.60;;
73699;SDS011;62005;50.082;8.988;2023-04-16T12:59:30;17.97;;;8.83;;
73699;SDS011;62005;50.082;8.988;2023-04-16T13:01:55;17.10;;;9.20;;
73699;SDS011;62005;50.082;8.988;2023-04-16T13:04:24;18.23;;;9.85;;
73699;SDS011;62005;50.082;8.988;2023-04-16T13:06:49;19.15;;;9.38;;
73699;SDS011;62005;50.082;8.988;2023-04-16T13:09:17;18.42;;;9.30;;
73699;SDS011;62005;50.082;8.988;2023-04-16T13:11:45;18.95;;;9.38;;
73699;SDS011;62005;50.082;8.988;2023-04-16T13:14:13;17.88;;;9.68;;
73699;SDS011;62005;50.082;8.988;2023-04-16T13:16:41;17.52;;;9.48;;
73699;SDS011;62005;50.082;8.988;2023-04-16T13:19:40;18.35;;;9.93;;
73699;SDS011;62005;50.082;8.988;2023-04-16T13:22:06;19.85;;;9.30;;
73699;SDS011;62005;50.082;8.988;2023-04-16T13:24:33;17.80;;;9.93;;
73699;SDS011;62005;50.082;8.988;2023-04-16T13:27:01;17.17;;;9.43;;
73699;SDS011;62005;50.082;8.988;2023-04-16T13:29:50;15.10;;;8.60;;
73699;SDS011;62005;50.082;8.988;2023-04-16T13:38:10;17.45;;;8.55;;
73699;SDS011;62005;50.082;8.988;2023-04-16T13:47:21;13.07;;;6.90;;
73699;SDS011;62005;50.082;8.988;2023-04-16T13:50:21;13.50;;;7.60;;
73699;SDS011;62005;50.082;8.988;2023-04-16T13:56:23;13.38;;;6.60;;
73699;SDS011;62005;50.082;8.988;2023-04-16T14:02:14;13.23;;;7.25;;
73699;SDS011;62005;50.082;8.988;2023-04-16T14:05:18;11.88;;;6.43;;
73699;SDS011;62005;50.082;8.988;2023-04-16T14:21:54;12.43;;;5.50;;
73699;SDS011;62005;50.082;8.988;2023-04-16T14:27:33;10.68;;;5.43;;
73699;SDS011;62005;50.082;8.988;2023-04-16T14:29:59;9.95;;;5.65;;
73699;SDS011;62005;50.082;8.988;2023-04-16T14:32:58;11.18;;;5.40;;
73699;SDS011;62005;50.082;8.988;2023-04-16T14:35:31;10.43;;;5.68;;
73699;SDS011;62005;50.082;8.988;2023-04-16T14:38:29;12.10;;;5.63;;
73699;SDS011;62005;50.082;8.988;2023-04-16T14:41:00;10.15;;;6.00;;
73699;SDS011;62005;50.082;8.988;2023-04-16T14:43:34;12.82;;;5.95;;
73699;SDS011;62005;50.082;8.988;2023-04-16T14:45:59;11.38;;;5.88;;
73699;SDS011;62005;50.082;8.988;2023-04-16T14:48:25;10.77;;;5.20;;
73699;SDS011;62005;50.082;8.988;2023-04-16T14:56:48;10.02;;;5.25;;
73699;SDS011;62005;50.082;8.988;2023-04-16T14:59:14;9.60;;;4.95;;
73699;SDS011;62005;50.082;8.988;2023-04-16T15:01:39;10.73;;;5.95;;
73699;SDS011;62005;50.082;8.988;2023-04-16T15:04:27;9.27;;;5.18;;
73699;SDS011;62005;50.082;8.988;2023-04-16T15:06:55;13.75;;;5.65;;
73699;SDS011;62005;50.082;8.988;2023-04-16T15:12:08;11.50;;;5.50;;
73699;SDS011;62005;50.082;8.988;2023-04-16T15:14:47;9.90;;;5.18;;
73699;SDS011;62005;50.082;8.988;2023-04-16T15:17:42;12.68;;;6.15;;
73699;SDS011;62005;50.082;8.988;2023-04-16T15:26:31;9.00;;;4.90;;
73699;SDS011;62005;50.082;8.988;2023-04-16T15:45:24;9.70;;;5.20;;
73699;SDS011;62005;50.082;8.988;2023-04-16T15:51:35;9.35;;;4.72;;
73699;SDS011;62005;50.082;8.988;2023-04-16T15:54:26;9.82;;;4.93;;
73699;SDS011;62005;50.082;8.988;2023-04-16T15:56:54;8.57;;;4.57;;
73699;SDS011;62005;50.082;8.988;2023-04-16T15:59:34;9.15;;;5.20;;
73699;SDS011;62005;50.082;8.988;2023-04-16T16:02:46;10.90;;;5.15;;
73699;SDS011;62005;50.082;8.988;2023-04-16T16:06:06;10.23;;;4.90;;
73699;SDS011;62005;50.082;8.988;2023-04-16T16:08:41;9.35;;;5.07;;
73699;SDS011;62005;50.082;8.988;2023-04-16T16:11:34;8.90;;;5.07;;
73699;SDS011;62005;50.082;8.988;2023-04-16T16:15:11;7.95;;;4.60;;
73699;SDS011;62005;50.082;8.988;2023-04-16T16:18:06;9.35;;;4.88;;
73699;SDS011;62005;50.082;8.988;2023-04-16T16:24:03;9.90;;;5.13;;
73699;SDS011;62005;50.082;8.988;2023-04-16T16:33:49;8.32;;;4.65;;
73699;SDS011;62005;50.082;8.988;2023-04-16T16:39:41;15.45;;;6.40;;
73699;SDS011;62005;50.082;8.988;2023-04-16T16:42:36;8.38;;;4.43;;
73699;SDS011;62005;50.082;8.988;2023-04-16T16:54:53;9.23;;;5.38;;
73699;SDS011;62005;50.082;8.988;2023-04-16T16:57:20;8.38;;;5.00;;
73699;SDS011;62005;50.082;8.988;2023-04-16T17:02:28;11.15;;;4.85;;
73699;SDS011;62005;50.082;8.988;2023-04-16T17:05:26;10.50;;;4.90;;
73699;SDS011;62005;50.082;8.988;2023-04-16T17:08:32;9.35;;;5.22;;
73699;SDS011;62005;50.082;8.988;2023-04-16T17:56:21;10.05;;;6.30;;
73699;SDS011;62005;50.082;8.988;2023-04-16T20:07:41;9.73;;;4.53;;
